Dewey, IL

7:34 AM CST on November 27, 2014 (GMT -0600)
Univ Of Illinois-Willard | Change Station
CLOSE
Current Station
Airport
Location: Champaign,
Elevation: 755 ft
Nearby Weather Stations

Elev 755 ft 40.04 °N, 88.28 °W | Updated 41 minutes ago

Overcast
Overcast
24 °F
Feels Like 12 °F
N
13
Wind Variable Wind from WNW

Today
High -- | Low -- °F
--% Chance of Precip.
Yesterday
High -- | Low -- °F
Precip. -- in
6:52 AM 4:28 PM
Waxing Crescent, 29% visible
Pressure 30.35 in
Visibility 5.0 miles
Clouds Overcast 5500 ft
Windchill 12 °F
Dew Point 20 °F
Humidity 84%
Rainfall 0.00 in
Snow Depth Not available.
UV 0 out of 12
Pollen .10 out of 12
Air Quality Not available.
Flu Activity Not available.
METAR KCMI 271253Z 30011KT 5SM BR OVC055 M04/M07 A3032 RMK AO2 SLP277 T10441067 $

More Conditions Fewer Conditions

Pressure 30.35 in
Visibility 5.0 miles
Clouds Overcast 5500 ft
Windchill 12 °F
Dew Point 20 °F
Humidity 84%
Rainfall 0.00 in
Snow Depth Not available.
UV 0 out of 12
Pollen .10 out of 12
Air Quality Not available.
Flu Activity Not available.
METAR KCMI 271253Z 30011KT 5SM BR OVC055 M04/M07 A3032 RMK AO2 SLP277 T10441067 $

More Conditions Fewer Conditions

10-Day Weather Forecast

Almanac

Astronomy

Nov. 27, 2014 Rise Set
Actual Time
Civil Twilight
Nautical Twilight
Astronomical Twilight
Moon
Length of Visible Light
Length of Day
Tomorrow will be .
, % of the Moon is Illuminated

Today's Extremes

State Highs State Lows

Community

WunderPhotos

Upload Photos

1,773,998 photos uploaded!

WunderBlogs® & News

Nearby

Air Quality

  Air Quality AQ Index Pollutant
Not available.

Snow Depth

Station Depth Elevation

Earthquake Activity

City Distance Mag. Time & Date
Minimum magnitude displayed is 2.5.

Coastal Water Temperatures

Place Temperature

Nearby Weather Stations